Time;durP1;ratioP1;P1;durP2;ratioP2;P2;SDS_P1;SDS_P2;PMS_P1;PMS_P2;Temp;Humidity;BMP_temperature;BMP_pressure;BME280_temperature;BME280_humidity;BME280_pressure;Samples;Min_cycle;Max_cycle;Signal;HPM_P1;HPM_P2
2023/10/26 00:00:27;;;;;;;8.43;4.13;;;9.90;98.90;;;;;;4990386;28;20042;-70
2023/10/26 00:02:53;;;;;;;7.50;4.07;;;9.80;98.90;;;;;;4993345;28;20038;-70
2023/10/26 00:05:18;;;;;;;6.30;3.58;;;9.80;99.00;;;;;;4988626;28;20093;-71
2023/10/26 00:07:44;;;;;;;7.30;3.90;;;9.80;99.00;;;;;;4985726;28;20038;-71
2023/10/26 00:10:10;;;;;;;6.28;3.50;;;9.80;99.10;;;;;;4983836;28;20096;-70
2023/10/26 00:12:35;;;;;;;9.65;4.05;;;9.80;99.10;;;;;;4979082;28;20101;-70
2023/10/26 00:15:01;;;;;;;7.05;3.70;;;9.80;99.20;;;;;;4984916;28;20479;-70
2023/10/26 00:17:27;;;;;;;9.85;3.63;;;9.70;99.20;;;;;;4983964;28;20037;-70
2023/10/26 00:19:52;;;;;;;7.78;3.83;;;9.70;99.20;;;;;;4985699;28;20026;-70
2023/10/26 00:22:22;;;;;;;7.93;4.18;;;9.70;99.20;;;;;;4985074;28;20030;-70
2023/10/26 00:24:48;;;;;;;8.45;3.67;;;9.70;99.30;;;;;;4982487;28;20397;-70
2023/10/26 00:27:14;;;;;;;8.02;3.63;;;9.70;99.40;;;;;;4977847;28;20046;-73
2023/10/26 00:29:40;;;;;;;6.82;3.83;;;9.70;99.40;;;;;;4988035;28;20041;-70
2023/10/26 00:32:06;;;;;;;9.27;4.28;;;9.70;99.50;;;;;;4984324;28;20027;-71
2023/10/26 00:34:36;;;;;;;7.78;3.80;;;9.70;99.50;;;;;;4987425;28;20074;-71
2023/10/26 00:37:02;;;;;;;7.53;3.85;;;9.70;99.60;;;;;;4986638;28;20497;-70
2023/10/26 00:39:27;;;;;;;6.75;3.58;;;9.70;99.60;;;;;;4987393;28;20039;-70
2023/10/26 00:41:53;;;;;;;8.13;3.35;;;9.60;99.60;;;;;;4984748;28;20189;-73
2023/10/26 00:44:21;;;;;;;5.97;3.72;;;9.70;99.60;;;;;;4959240;28;20038;-71
2023/10/26 00:46:48;;;;;;;6.78;4.10;;;9.60;99.70;;;;;;4986695;28;20030;-70
2023/10/26 00:49:15;;;;;;;6.20;3.70;;;9.60;99.70;;;;;;4992190;28;20034;-70
2023/10/26 00:51:53;;;;;;;6.10;3.42;;;9.60;99.80;;;;;;4990978;28;20124;-71
2023/10/26 00:54:20;;;;;;;6.80;3.60;;;9.60;99.70;;;;;;4989733;28;20557;-73
2023/10/26 00:56:50;;;;;;;7.47;3.88;;;9.60;99.70;;;;;;4985748;28;20045;-71
2023/10/26 00:59:16;;;;;;;8.63;4.50;;;9.60;99.70;;;;;;4989124;28;20364;-73
2023/10/26 01:01:45;;;;;;;7.85;3.67;;;9.60;99.80;;;;;;4981584;28;20046;-70
2023/10/26 01:04:14;;;;;;;7.47;3.40;;;9.50;99.80;;;;;;4987305;28;20105;-70
2023/10/26 01:06:40;;;;;;;8.02;4.20;;;9.50;99.80;;;;;;4989813;28;20693;-72
2023/10/26 01:09:05;;;;;;;6.50;3.15;;;9.40;99.80;;;;;;4986428;28;20030;-72
2023/10/26 01:11:32;;;;;;;7.80;4.05;;;9.50;99.80;;;;;;4980346;28;20112;-73
2023/10/26 01:13:58;;;;;;;6.63;3.67;;;9.50;99.80;;;;;;4985908;28;20023;-72
2023/10/26 01:16:24;;;;;;;7.93;3.60;;;9.40;99.80;;;;;;4984946;28;20054;-71
2023/10/26 01:18:49;;;;;;;7.32;3.58;;;9.40;99.80;;;;;;4986419;28;20459;-70
2023/10/26 01:21:15;;;;;;;5.53;3.05;;;9.40;99.90;;;;;;4990689;28;20022;-70
2023/10/26 01:23:40;;;;;;;6.07;3.33;;;9.40;99.90;;;;;;4987943;28;20038;-73
2023/10/26 01:26:06;;;;;;;7.10;3.78;;;9.40;99.90;;;;;;4984525;28;20050;-71
2023/10/26 01:28:31;;;;;;;6.70;3.33;;;9.40;99.90;;;;;;4984490;28;20356;-71
2023/10/26 01:30:57;;;;;;;6.57;3.55;;;9.30;99.90;;;;;;4982262;28;20045;-71
2023/10/26 01:33:23;;;;;;;5.75;3.15;;;9.30;99.90;;;;;;4984381;28;20061;-71
2023/10/26 01:35:49;;;;;;;7.97;3.63;;;9.30;99.90;;;;;;4989392;28;20558;-73
2023/10/26 01:38:14;;;;;;;5.20;2.97;;;9.30;99.90;;;;;;4985166;28;20031;-71
2023/10/26 01:40:40;;;;;;;5.68;2.58;;;9.30;99.90;;;;;;4987193;28;20413;-71
2023/10/26 01:43:05;;;;;;;7.40;4.07;;;9.30;99.90;;;;;;4982617;28;20042;-74
2023/10/26 01:45:31;;;;;;;6.82;3.20;;;9.30;99.90;;;;;;4990975;28;20100;-71
2023/10/26 01:47:59;;;;;;;6.47;2.90;;;9.30;99.90;;;;;;4980248;28;20074;-71
2023/10/26 01:50:26;;;;;;;6.63;3.22;;;9.30;99.90;;;;;;4986062;28;20034;-70
2023/10/26 01:52:51;;;;;;;6.90;3.45;;;9.20;99.90;;;;;;4984107;28;20041;-70
2023/10/26 01:55:16;;;;;;;4.78;2.72;;;9.30;99.90;;;;;;4986015;28;20035;-70
2023/10/26 01:57:42;;;;;;;5.72;3.13;;;9.30;99.90;;;;;;4980854;28;20464;-70
2023/10/26 02:00:08;;;;;;;5.88;3.20;;;9.30;99.90;;;;;;4988427;28;20043;-70
2023/10/26 02:02:34;;;;;;;7.53;3.38;;;9.20;99.90;;;;;;4982446;28;20030;-70
2023/10/26 02:04:59;;;;;;;6.78;3.20;;;9.20;99.90;;;;;;4977924;28;20106;-70
2023/10/26 02:07:25;;;;;;;5.40;2.75;;;9.20;99.90;;;;;;4987148;28;20034;-70
2023/10/26 02:09:50;;;;;;;5.10;2.70;;;9.20;99.90;;;;;;4987539;28;20038;-71
2023/10/26 02:12:16;;;;;;;5.57;2.75;;;9.10;99.90;;;;;;4983384;28;20077;-70
2023/10/26 02:14:41;;;;;;;6.47;3.03;;;9.20;99.90;;;;;;4990016;28;20454;-71
2023/10/26 02:17:07;;;;;;;7.57;3.33;;;9.20;99.90;;;;;;4979649;28;20034;-70
2023/10/26 02:19:32;;;;;;;7.50;3.65;;;9.10;99.90;;;;;;4980844;28;20046;-71
2023/10/26 02:21:58;;;;;;;6.32;3.15;;;9.20;99.90;;;;;;4982042;28;20093;-70
2023/10/26 02:24:23;;;;;;;7.03;3.65;;;9.20;99.90;;;;;;4982160;28;20467;-70
2023/10/26 02:26:49;;;;;;;7.50;3.13;;;9.20;99.90;;;;;;4976743;28;20152;-72
2023/10/26 02:29:14;;;;;;;6.03;2.97;;;9.10;99.90;;;;;;4977621;28;20027;-73
2023/10/26 02:31:40;;;;;;;7.20;3.20;;;9.20;99.90;;;;;;4977410;28;20042;-70
2023/10/26 02:34:05;;;;;;;7.95;3.38;;;9.20;99.90;;;;;;4984125;28;20236;-70
2023/10/26 02:36:31;;;;;;;6.10;2.58;;;9.10;99.90;;;;;;4981322;28;20030;-73
2023/10/26 02:38:56;;;;;;;7.18;3.38;;;9.10;99.90;;;;;;4977203;28;20033;-71
2023/10/26 02:41:22;;;;;;;5.43;2.35;;;9.10;99.90;;;;;;4980620;28;20164;-70
2023/10/26 02:43:47;;;;;;;5.95;2.70;;;9.10;99.90;;;;;;4981280;28;20101;-69
2023/10/26 02:46:13;;;;;;;6.55;3.40;;;9.20;99.90;;;;;;4982906;28;20030;-70
2023/10/26 02:48:38;;;;;;;6.15;3.10;;;9.10;99.90;;;;;;4981776;28;20031;-70
2023/10/26 02:51:04;;;;;;;6.95;3.05;;;9.10;99.90;;;;;;4990652;28;20596;-70
2023/10/26 02:53:30;;;;;;;8.10;3.70;;;9.10;99.90;;;;;;4980189;28;20027;-70
2023/10/26 02:55:55;;;;;;;4.90;2.33;;;9.10;99.90;;;;;;4981289;28;20058;-72
2023/10/26 02:58:21;;;;;;;6.43;2.97;;;9.10;99.90;;;;;;4985128;28;20042;-72
2023/10/26 03:00:46;;;;;;;7.63;3.25;;;9.10;99.90;;;;;;4987185;28;20088;-70
2023/10/26 03:03:12;;;;;;;6.57;3.15;;;9.10;99.90;;;;;;4984372;28;20022;-71
2023/10/26 03:05:38;;;;;;;5.18;2.78;;;9.10;99.90;;;;;;4986736;28;20046;-70
2023/10/26 03:08:04;;;;;;;5.93;3.13;;;9.10;99.90;;;;;;4986984;28;20122;-69
2023/10/26 03:10:29;;;;;;;7.32;3.03;;;9.10;99.90;;;;;;4986775;28;20034;-71
2023/10/26 03:12:55;;;;;;;5.30;2.97;;;9.10;99.90;;;;;;4976741;28;20076;-70
2023/10/26 03:15:20;;;;;;;7.25;3.15;;;9.10;99.90;;;;;;4975500;28;20042;-71
2023/10/26 03:17:46;;;;;;;5.85;2.97;;;9.10;99.90;;;;;;4975165;28;20375;-69
2023/10/26 03:20:12;;;;;;;8.80;3.55;;;9.10;99.90;;;;;;4979695;28;20046;-69
2023/10/26 03:22:37;;;;;;;7.75;3.50;;;9.10;99.90;;;;;;4987699;28;20042;-70
2023/10/26 03:25:04;;;;;;;8.32;3.65;;;9.10;99.90;;;;;;4987477;28;20129;-71
2023/10/26 03:27:31;;;;;;;6.82;3.15;;;9.10;99.90;;;;;;4983751;28;20050;-70
2023/10/26 03:29:57;;;;;;;5.80;3.17;;;9.10;99.90;;;;;;4987575;28;20040;-69
2023/10/26 03:32:22;;;;;;;6.47;3.38;;;9.00;99.90;;;;;;4982622;28;20034;-72
2023/10/26 03:34:48;;;;;;;9.15;3.78;;;9.10;99.90;;;;;;4978793;28;20030;-69
2023/10/26 03:37:14;;;;;;;7.25;4.20;;;9.00;99.90;;;;;;4982945;28;20022;-70
2023/10/26 03:39:40;;;;;;;6.45;3.65;;;9.10;99.90;;;;;;4987665;28;20463;-70
2023/10/26 03:42:06;;;;;;;6.30;3.33;;;9.00;99.90;;;;;;4986348;28;20058;-69
2023/10/26 03:44:31;;;;;;;6.32;3.22;;;9.10;99.90;;;;;;4985939;28;20443;-71
2023/10/26 03:46:57;;;;;;;6.25;3.15;;;9.10;99.90;;;;;;4983595;28;20113;-70
2023/10/26 03:49:22;;;;;;;6.78;3.35;;;9.10;99.90;;;;;;4983101;28;20113;-70
2023/10/26 03:51:48;;;;;;;7.07;3.17;;;9.00;99.90;;;;;;4985578;28;20429;-74
2023/10/26 03:54:13;;;;;;;6.75;3.53;;;9.00;99.90;;;;;;4985139;28;20539;-71
2023/10/26 03:56:39;;;;;;;8.23;3.78;;;9.10;99.90;;;;;;4986163;28;20127;-70
2023/10/26 03:59:04;;;;;;;7.03;3.60;;;9.10;99.90;;;;;;4987417;28;20031;-71
2023/10/26 04:01:30;;;;;;;6.25;3.17;;;9.00;99.90;;;;;;4987466;28;20034;-70
2023/10/26 04:03:55;;;;;;;10.00;4.15;;;9.10;99.90;;;;;;4985192;28;20034;-70
2023/10/26 04:06:21;;;;;;;7.25;3.83;;;9.10;99.90;;;;;;4984141;28;20117;-70
2023/10/26 04:08:48;;;;;;;6.20;3.50;;;9.00;99.90;;;;;;4979743;28;20089;-70
2023/10/26 04:11:17;;;;;;;8.35;3.75;;;9.10;99.90;;;;;;4989305;28;20042;-73
2023/10/26 04:13:43;;;;;;;9.38;3.08;;;9.00;99.90;;;;;;4986563;28;20027;-70
2023/10/26 04:16:08;;;;;;;7.75;3.50;;;9.00;99.90;;;;;;4983115;28;20037;-70
2023/10/26 04:18:34;;;;;;;9.35;4.78;;;9.10;99.90;;;;;;4978620;28;20037;-70
2023/10/26 04:20:59;;;;;;;11.45;4.05;;;9.10;99.90;;;;;;4985289;28;20027;-71
2023/10/26 04:23:26;;;;;;;7.30;3.70;;;9.10;99.90;;;;;;4982343;28;20027;-69
2023/10/26 04:25:51;;;;;;;8.70;3.65;;;9.00;99.90;;;;;;4985865;28;20419;-70
2023/10/26 04:28:17;;;;;;;7.32;3.50;;;9.00;99.90;;;;;;4980207;28;20042;-67
2023/10/26 04:30:44;;;;;;;9.23;4.60;;;9.00;99.90;;;;;;4988010;28;20084;-70
2023/10/26 04:33:10;;;;;;;8.07;3.53;;;9.00;99.90;;;;;;4983955;28;21274;-68
2023/10/26 04:35:40;;;;;;;7.90;3.97;;;9.00;99.90;;;;;;4989468;28;20121;-68
2023/10/26 04:38:08;;;;;;;8.02;3.67;;;8.90;99.90;;;;;;4983932;28;20454;-67
2023/10/26 04:40:34;;;;;;;7.07;3.60;;;9.00;99.90;;;;;;4987008;28;20030;-67
2023/10/26 04:42:59;;;;;;;8.20;3.85;;;8.90;99.90;;;;;;4984330;28;20035;-69
2023/10/26 04:45:24;;;;;;;8.07;3.53;;;8.80;99.90;;;;;;4992761;28;20039;-69
2023/10/26 04:47:50;;;;;;;7.18;3.72;;;8.80;99.90;;;;;;4987384;28;20035;-69
2023/10/26 04:50:16;;;;;;;10.50;4.40;;;8.90;99.90;;;;;;4989065;28;20113;-68
2023/10/26 04:52:41;;;;;;;7.28;3.22;;;8.80;99.90;;;;;;4987891;28;20034;-67
2023/10/26 04:55:07;;;;;;;9.05;3.38;;;8.80;99.90;;;;;;4983581;28;20328;-67
2023/10/26 04:57:32;;;;;;;7.90;3.60;;;8.80;99.90;;;;;;4982685;28;21641;-67
2023/10/26 04:59:58;;;;;;;9.90;4.82;;;8.80;99.90;;;;;;4988432;28;20093;-67
2023/10/26 05:02:23;;;;;;;10.30;4.40;;;8.80;99.90;;;;;;4988322;28;20042;-70
2023/10/26 05:04:49;;;;;;;7.30;3.63;;;8.80;99.90;;;;;;4989019;28;20030;-68
2023/10/26 05:07:14;;;;;;;7.40;3.92;;;8.80;99.90;;;;;;4986494;28;20053;-67
2023/10/26 05:09:40;;;;;;;8.35;3.92;;;8.80;99.90;;;;;;4989887;28;20108;-67
2023/10/26 05:12:05;;;;;;;7.35;3.63;;;8.80;99.90;;;;;;4984549;28;20038;-67
2023/10/26 05:14:31;;;;;;;7.57;4.10;;;8.70;99.90;;;;;;4989662;28;20519;-68
2023/10/26 05:16:56;;;;;;;7.82;3.67;;;8.70;99.90;;;;;;4987410;28;20034;-67
2023/10/26 05:19:22;;;;;;;7.35;3.25;;;8.70;99.90;;;;;;4989905;28;20061;-68
2023/10/26 05:21:47;;;;;;;9.27;3.75;;;8.70;99.90;;;;;;4989102;28;20066;-68
2023/10/26 05:24:13;;;;;;;7.95;3.75;;;8.70;99.90;;;;;;4989977;28;20342;-68
2023/10/26 05:26:38;;;;;;;9.05;4.15;;;8.70;99.90;;;;;;4983051;28;20050;-68
2023/10/26 05:29:04;;;;;;;9.35;4.03;;;8.60;99.90;;;;;;4981450;28;20078;-67
2023/10/26 05:31:29;;;;;;;8.23;4.10;;;8.70;99.90;;;;;;4986450;28;20042;-68
2023/10/26 05:33:55;;;;;;;10.75;3.85;;;8.60;99.90;;;;;;4982636;28;20601;-68
2023/10/26 05:36:20;;;;;;;8.02;3.38;;;8.70;99.90;;;;;;4986398;28;20042;-67
2023/10/26 05:38:46;;;;;;;9.25;3.60;;;8.60;99.90;;;;;;4990717;28;20383;-67
2023/10/26 05:41:11;;;;;;;8.88;3.88;;;8.70;99.90;;;;;;4989011;28;20046;-67
2023/10/26 05:43:37;;;;;;;8.13;3.67;;;8.60;99.90;;;;;;4985889;28;20026;-69
2023/10/26 05:46:03;;;;;;;8.85;3.83;;;8.60;99.90;;;;;;4986662;28;20050;-67
2023/10/26 05:48:31;;;;;;;9.27;4.00;;;8.70;99.90;;;;;;4988754;28;20479;-67
2023/10/26 05:50:57;;;;;;;7.47;3.78;;;8.70;99.90;;;;;;4986407;28;20030;-69
2023/10/26 05:53:22;;;;;;;9.15;4.03;;;8.70;99.90;;;;;;4987464;28;20038;-67
2023/10/26 05:55:58;;;;;;;7.93;4.05;;;8.70;99.90;;;;;;4988348;28;20042;-67
2023/10/26 05:58:24;;;;;;;7.70;3.50;;;8.70;99.90;;;;;;4981150;28;20429;-67
2023/10/26 06:00:50;;;;;;;8.40;3.95;;;8.60;99.90;;;;;;4987312;28;20030;-68
2023/10/26 06:03:16;;;;;;;10.10;4.93;;;8.70;99.90;;;;;;4986307;28;20030;-72
2023/10/26 06:05:41;;;;;;;9.73;4.47;;;8.70;99.90;;;;;;4983369;28;20042;-67
2023/10/26 06:08:07;;;;;;;8.05;3.95;;;8.60;99.90;;;;;;4988851;28;20497;-67
2023/10/26 06:10:32;;;;;;;10.32;4.32;;;8.60;99.90;;;;;;4983081;28;20037;-67
2023/10/26 06:12:58;;;;;;;8.38;3.80;;;8.60;99.90;;;;;;4983591;28;20028;-68
2023/10/26 06:15:23;;;;;;;8.57;3.35;;;8.70;99.90;;;;;;4986741;28;20435;-67
2023/10/26 06:17:50;;;;;;;8.25;4.30;;;8.60;99.90;;;;;;4990536;28;20039;-68
2023/10/26 06:20:16;;;;;;;7.80;4.07;;;8.70;99.90;;;;;;4987227;28;20079;-68
2023/10/26 06:22:42;;;;;;;6.43;3.35;;;8.70;99.90;;;;;;4981396;28;20030;-68
2023/10/26 06:25:08;;;;;;;10.45;3.80;;;8.70;99.90;;;;;;4984957;28;20045;-67
2023/10/26 06:27:34;;;;;;;9.18;4.07;;;8.70;99.90;;;;;;4981645;28;20137;-67
2023/10/26 06:29:59;;;;;;;8.98;4.35;;;8.70;99.90;;;;;;4982201;28;20567;-69
2023/10/26 06:32:25;;;;;;;11.07;4.18;;;8.70;99.90;;;;;;4989431;28;20038;-68
2023/10/26 06:34:50;;;;;;;11.43;4.28;;;8.70;99.90;;;;;;4982419;28;20400;-72
2023/10/26 06:37:16;;;;;;;10.05;4.55;;;8.80;99.90;;;;;;4986516;28;20030;-68
2023/10/26 06:39:42;;;;;;;10.65;4.45;;;8.80;99.90;;;;;;4984051;28;20078;-67
2023/10/26 06:42:07;;;;;;;11.75;4.90;;;8.80;99.90;;;;;;4983437;28;20432;-69
2023/10/26 06:44:33;;;;;;;11.57;5.43;;;8.80;99.90;;;;;;4982074;28;20506;-67
2023/10/26 06:46:58;;;;;;;9.20;4.32;;;8.90;99.90;;;;;;4986715;28;20070;-69
2023/10/26 06:49:24;;;;;;;9.73;3.78;;;8.90;99.90;;;;;;4988237;28;20044;-67
2023/10/26 06:51:49;;;;;;;9.23;4.47;;;8.90;99.90;;;;;;4987108;28;20042;-69
2023/10/26 06:54:15;;;;;;;9.07;4.35;;;8.90;99.90;;;;;;4986113;28;20352;-67
2023/10/26 06:56:42;;;;;;;8.65;3.95;;;8.90;99.90;;;;;;4983006;28;20062;-68
2023/10/26 06:59:07;;;;;;;8.50;4.45;;;8.90;99.90;;;;;;4986393;28;20379;-69
2023/10/26 07:01:33;;;;;;;8.23;3.58;;;9.00;99.90;;;;;;4988179;28;20034;-69
2023/10/26 07:03:59;;;;;;;7.47;3.67;;;9.00;99.90;;;;;;4987307;28;20118;-68
2023/10/26 07:06:25;;;;;;;7.05;3.38;;;9.00;99.90;;;;;;4985841;28;20449;-68
2023/10/26 07:08:51;;;;;;;7.00;3.90;;;9.00;99.90;;;;;;4984369;28;20030;-67
2023/10/26 07:11:16;;;;;;;11.77;4.57;;;9.10;99.90;;;;;;4986533;28;20088;-67
2023/10/26 07:13:42;;;;;;;10.75;4.88;;;9.10;99.90;;;;;;4980590;28;20038;-67
2023/10/26 07:16:08;;;;;;;8.57;3.83;;;9.10;99.90;;;;;;4986257;28;20116;-68
2023/10/26 07:18:34;;;;;;;11.30;4.50;;;9.10;99.90;;;;;;4985945;28;20031;-70
2023/10/26 07:21:07;;;;;;;10.10;4.70;;;9.20;99.90;;;;;;4985269;28;20030;-67
2023/10/26 07:23:33;;;;;;;9.70;4.63;;;9.20;99.90;;;;;;4977889;28;20035;-67
2023/10/26 07:25:59;;;;;;;11.05;4.13;;;9.20;99.90;;;;;;4983351;28;20058;-68
2023/10/26 07:28:24;;;;;;;11.27;4.63;;;9.20;99.90;;;;;;4979292;28;20456;-68
2023/10/26 07:30:51;;;;;;;9.50;4.22;;;9.30;99.90;;;;;;4984773;28;20034;-67
2023/10/26 07:33:20;;;;;;;7.65;3.95;;;9.30;99.90;;;;;;4981537;28;20040;-67
2023/10/26 07:35:50;;;;;;;8.35;4.40;;;9.30;99.90;;;;;;4985378;28;20027;-67
2023/10/26 07:38:16;;;;;;;9.07;3.80;;;9.40;99.90;;;;;;4983633;28;20025;-68
2023/10/26 07:40:51;;;;;;;9.50;3.97;;;9.40;99.90;;;;;;4987655;28;20442;-67
2023/10/26 07:43:16;;;;;;;10.15;4.03;;;9.40;99.90;;;;;;4978653;28;20026;-68
2023/10/26 07:45:42;;;;;;;7.75;3.97;;;9.50;99.90;;;;;;4983995;28;20050;-67
2023/10/26 07:48:07;;;;;;;9.63;3.65;;;9.50;99.90;;;;;;4987028;28;20467;-67
2023/10/26 07:50:33;;;;;;;7.32;3.90;;;9.50;99.90;;;;;;4985581;28;20379;-69
2023/10/26 07:52:58;;;;;;;8.32;3.67;;;9.50;99.90;;;;;;4983838;28;20039;-68
2023/10/26 07:55:24;;;;;;;8.23;3.90;;;9.50;99.90;;;;;;4986450;28;20045;-71
2023/10/26 07:57:50;;;;;;;7.78;4.00;;;9.50;99.90;;;;;;4983506;28;20064;-68
2023/10/26 08:00:16;;;;;;;8.40;3.72;;;9.60;99.90;;;;;;4982928;28;20038;-68
2023/10/26 08:02:41;;;;;;;8.52;3.42;;;9.60;99.90;;;;;;4986490;28;20110;-70
2023/10/26 08:05:08;;;;;;;8.80;4.10;;;9.60;99.90;;;;;;4992696;28;20042;-67
2023/10/26 08:07:33;;;;;;;10.02;3.50;;;9.60;99.90;;;;;;4983554;28;20121;-67
2023/10/26 08:09:59;;;;;;;8.18;3.58;;;9.70;99.90;;;;;;4985157;28;20036;-67
2023/10/26 08:12:24;;;;;;;8.93;4.00;;;9.70;99.90;;;;;;4984075;28;20402;-67
2023/10/26 08:14:55;;;;;;;7.88;3.70;;;9.70;99.90;;;;;;4992386;28;20042;-69
2023/10/26 08:17:21;;;;;;;9.63;4.35;;;9.80;99.90;;;;;;4991743;28;20045;-72
2023/10/26 08:19:51;;;;;;;9.15;3.95;;;9.80;99.90;;;;;;4989434;28;20039;-71
2023/10/26 08:22:17;;;;;;;7.30;3.38;;;9.90;99.90;;;;;;4987788;28;20030;-67
2023/10/26 08:24:42;;;;;;;9.07;3.75;;;10.00;99.90;;;;;;4989087;28;20144;-67
2023/10/26 08:27:07;;;;;;;7.90;3.72;;;10.10;99.90;;;;;;4985792;28;20118;-69
2023/10/26 08:29:33;;;;;;;9.02;3.63;;;10.20;99.90;;;;;;4989905;28;20050;-67
2023/10/26 08:31:58;;;;;;;7.68;3.88;;;10.20;99.90;;;;;;4990458;28;20034;-67
2023/10/26 08:34:26;;;;;;;8.70;3.58;;;10.30;99.90;;;;;;4989970;28;20043;-67
2023/10/26 08:36:51;;;;;;;9.00;3.85;;;10.40;99.90;;;;;;4984019;28;20089;-67
2023/10/26 08:39:17;;;;;;;7.32;3.25;;;10.40;99.90;;;;;;4991608;28;20065;-67
2023/10/26 08:41:50;;;;;;;9.65;3.72;;;10.50;99.90;;;;;;4977595;28;20038;-67
2023/10/26 08:44:17;;;;;;;10.63;4.40;;;10.50;99.90;;;;;;4982102;28;20034;-67
2023/10/26 08:46:46;;;;;;;11.43;3.92;;;10.50;99.80;;;;;;4991403;28;20376;-67
2023/10/26 08:49:13;;;;;;;9.65;4.22;;;10.70;99.80;;;;;;4988439;28;20054;-68
2023/10/26 08:51:38;;;;;;;7.03;2.97;;;10.70;99.70;;;;;;4985932;28;20078;-67
2023/10/26 08:54:05;;;;;;;8.70;3.38;;;10.70;99.50;;;;;;4993026;28;20062;-68
2023/10/26 08:56:31;;;;;;;9.07;4.03;;;10.80;99.50;;;;;;4991021;28;20030;-69
2023/10/26 08:58:57;;;;;;;8.05;3.58;;;10.90;99.40;;;;;;4981748;28;20517;-68
2023/10/26 09:01:23;;;;;;;8.93;3.90;;;11.00;99.50;;;;;;4990273;28;20078;-68
2023/10/26 09:03:49;;;;;;;9.02;3.72;;;10.90;99.30;;;;;;4989161;28;20045;-68
2023/10/26 09:06:14;;;;;;;7.70;3.83;;;11.00;99.10;;;;;;4986101;28;20038;-72
2023/10/26 09:08:40;;;;;;;9.63;4.13;;;10.80;98.80;;;;;;4988195;28;20042;-68
2023/10/26 09:11:22;;;;;;;8.52;4.00;;;10.80;98.90;;;;;;4982784;28;20027;-67
2023/10/26 09:13:48;;;;;;;6.90;3.83;;;10.80;98.90;;;;;;4988373;28;20029;-68
2023/10/26 09:16:13;;;;;;;6.97;3.75;;;10.80;99.00;;;;;;4984894;28;20042;-67
2023/10/26 09:18:39;;;;;;;8.98;4.03;;;10.80;98.90;;;;;;4987810;28;20530;-68
2023/10/26 09:21:06;;;;;;;7.32;3.42;;;10.80;99.00;;;;;;4988720;28;20042;-67
2023/10/26 09:23:33;;;;;;;6.57;3.28;;;10.90;99.00;;;;;;4988293;28;20031;-67
2023/10/26 09:26:00;;;;;;;7.82;3.83;;;10.90;99.00;;;;;;4986095;28;20047;-69
2023/10/26 09:28:26;;;;;;;8.63;3.45;;;10.90;98.90;;;;;;4986174;28;20026;-68
2023/10/26 09:31:00;;;;;;;6.93;3.45;;;10.90;98.70;;;;;;4986495;28;20037;-70
2023/10/26 09:33:27;;;;;;;9.02;3.72;;;11.00;98.80;;;;;;4988283;28;20034;-68
2023/10/26 09:35:52;;;;;;;6.32;3.08;;;11.00;98.90;;;;;;4986890;28;20426;-67
2023/10/26 09:38:51;;;;;;;6.95;3.60;;;11.10;99.00;;;;;;4987596;28;20034;-67
2023/10/26 09:41:18;;;;;;;7.93;3.50;;;11.10;98.90;;;;;;4976731;28;20561;-68
2023/10/26 09:43:44;;;;;;;8.77;4.22;;;11.00;98.80;;;;;;4981918;28;20031;-68
2023/10/26 09:46:14;;;;;;;9.00;3.58;;;11.00;98.70;;;;;;4989408;28;20093;-68
2023/10/26 09:48:40;;;;;;;7.47;3.70;;;11.10;98.80;;;;;;4988468;28;20073;-68
2023/10/26 09:51:06;;;;;;;6.72;2.90;;;11.10;98.80;;;;;;4986721;28;20475;-67
2023/10/26 09:53:35;;;;;;;9.85;3.75;;;11.20;98.70;;;;;;4992920;28;20033;-67
2023/10/26 09:56:02;;;;;;;7.88;3.50;;;11.20;98.80;;;;;;4988131;28;20491;-67
2023/10/26 09:58:36;;;;;;;8.68;4.20;;;11.30;98.80;;;;;;4983852;28;20375;-67
2023/10/26 10:01:21;;;;;;;6.85;3.28;;;11.10;98.30;;;;;;4988509;28;20032;-67
2023/10/26 10:03:47;;;;;;;7.82;3.67;;;11.20;98.40;;;;;;4985823;28;20037;-68
2023/10/26 10:06:44;;;;;;;6.20;2.88;;;11.30;98.30;;;;;;4989560;28;20046;-70
2023/10/26 10:09:13;;;;;;;7.80;3.13;;;11.30;98.40;;;;;;4988577;28;20034;-68
2023/10/26 10:11:39;;;;;;;8.32;4.05;;;11.40;98.40;;;;;;4989718;28;20027;-71
2023/10/26 10:14:05;;;;;;;8.00;3.67;;;11.30;98.30;;;;;;4988720;28;20100;-68
2023/10/26 10:16:33;;;;;;;6.68;3.17;;;11.40;98.20;;;;;;4990531;28;20038;-70
2023/10/26 10:19:23;;;;;;;6.78;3.55;;;11.40;98.00;;;;;;4980658;28;20097;-68
2023/10/26 10:21:51;;;;;;;5.47;2.63;;;11.50;97.80;;;;;;4986023;28;20018;-70
2023/10/26 10:24:42;;;;;;;6.97;2.90;;;11.30;97.40;;;;;;4986540;28;20118;-68
2023/10/26 10:27:09;;;;;;;9.40;3.85;;;11.40;97.60;;;;;;4982473;28;20035;-67
2023/10/26 10:29:35;;;;;;;7.20;2.92;;;11.30;97.60;;;;;;4987398;28;20033;-68
2023/10/26 10:32:00;;;;;;;8.70;3.55;;;11.30;97.70;;;;;;4988729;28;20030;-68
2023/10/26 10:34:33;;;;;;;5.65;2.65;;;11.20;97.80;;;;;;4986198;28;20450;-67
2023/10/26 10:37:17;;;;;;;5.80;2.92;;;11.30;98.00;;;;;;4986570;28;20042;-68
2023/10/26 10:40:11;;;;;;;6.10;2.83;;;11.20;97.60;;;;;;4986262;28;20034;-69
2023/10/26 10:42:39;;;;;;;6.60;3.08;;;11.20;97.80;;;;;;4982743;28;20030;-68
2023/10/26 10:45:11;;;;;;;6.45;2.80;;;11.30;98.00;;;;;;4985128;28;20096;-67
2023/10/26 10:47:37;;;;;;;6.45;2.95;;;11.30;98.10;;;;;;4989210;28;20392;-67
2023/10/26 10:50:26;;;;;;;4.75;2.47;;;11.20;97.70;;;;;;4989956;28;20030;-67
2023/10/26 10:52:55;;;;;;;4.80;2.72;;;11.20;97.60;;;;;;4988439;28;20038;-68
2023/10/26 10:55:28;;;;;;;5.00;2.33;;;11.20;97.70;;;;;;4991683;28;20034;-67
2023/10/26 10:57:58;;;;;;;6.10;2.22;;;11.20;97.70;;;;;;4986108;28;20065;-67
2023/10/26 11:00:26;;;;;;;4.85;2.20;;;11.30;97.60;;;;;;4985515;28;20037;-68
2023/10/26 11:02:58;;;;;;;6.15;2.67;;;11.40;97.60;;;;;;4989679;28;20034;-67
2023/10/26 11:05:36;;;;;;;4.65;2.38;;;11.50;97.80;;;;;;4986553;28;20030;-68
2023/10/26 11:08:02;;;;;;;4.68;2.17;;;11.60;97.60;;;;;;4988700;28;20459;-68
2023/10/26 11:10:27;;;;;;;4.55;2.30;;;11.60;97.30;;;;;;4985165;28;20034;-70
2023/10/26 11:12:53;;;;;;;5.90;2.75;;;11.70;97.20;;;;;;4985210;28;20037;-68
2023/10/26 11:15:18;;;;;;;4.88;2.50;;;11.80;97.20;;;;;;4988882;28;20471;-70
2023/10/26 11:17:44;;;;;;;5.22;2.50;;;11.80;96.80;;;;;;4988747;28;20034;-68
2023/10/26 11:20:32;;;;;;;5.20;2.15;;;11.90;96.50;;;;;;4985476;28;20036;-68
2023/10/26 11:22:58;;;;;;;3.75;2.00;;;12.10;96.70;;;;;;4986150;28;20077;-68
2023/10/26 11:25:25;;;;;;;4.93;2.30;;;12.20;96.80;;;;;;4985034;28;20058;-68
2023/10/26 11:27:50;;;;;;;4.13;1.80;;;12.30;96.50;;;;;;4982595;28;20117;-68
2023/10/26 11:30:16;;;;;;;4.60;1.90;;;12.30;96.50;;;;;;4986126;28;20172;-68
2023/10/26 11:32:41;;;;;;;4.25;2.15;;;12.00;95.30;;;;;;4985866;28;20799;-68
2023/10/26 11:35:08;;;;;;;3.95;2.03;;;11.90;95.90;;;;;;4987777;28;20034;-68
2023/10/26 11:37:35;;;;;;;4.03;1.95;;;11.90;96.50;;;;;;4985100;28;20517;-68
2023/10/26 11:40:06;;;;;;;4.35;2.20;;;11.90;96.90;;;;;;4986080;28;20464;-67
2023/10/26 11:42:51;;;;;;;4.07;2.23;;;12.00;96.70;;;;;;4978701;28;20039;-68
2023/10/26 11:45:19;;;;;;;3.08;1.65;;;12.10;96.70;;;;;;4980424;28;20364;-68
2023/10/26 11:47:52;;;;;;;4.90;2.33;;;12.20;96.60;;;;;;4985710;28;20038;-67
2023/10/26 11:50:32;;;;;;;5.72;2.70;;;12.10;96.30;;;;;;4989630;28;20030;-68
2023/10/26 11:53:03;;;;;;;4.03;2.00;;;12.10;96.20;;;;;;4988752;28;20022;-67
2023/10/26 11:55:31;;;;;;;3.55;1.70;;;12.10;96.10;;;;;;4990105;28;20448;-70
2023/10/26 11:57:58;;;;;;;4.70;2.13;;;12.10;95.80;;;;;;4983849;28;20129;-68
2023/10/26 12:00:25;;;;;;;4.55;2.00;;;12.00;95.40;;;;;;4984242;28;20030;-68
2023/10/26 12:02:52;;;;;;;4.15;1.70;;;12.00;95.30;;;;;;4987414;28;20077;-68
2023/10/26 12:05:19;;;;;;;4.65;2.30;;;12.00;95.50;;;;;;4986146;28;20035;-69
2023/10/26 12:07:48;;;;;;;5.03;2.13;;;12.00;95.30;;;;;;4985632;28;20042;-67
2023/10/26 12:10:16;;;;;;;6.07;2.30;;;11.90;95.40;;;;;;4986772;28;20050;-67
2023/10/26 12:12:42;;;;;;;3.42;1.50;;;12.00;95.70;;;;;;4985258;28;20035;-68
2023/10/26 12:15:08;;;;;;;2.85;1.75;;;11.80;95.30;;;;;;4985915;28;20033;-69
2023/10/26 12:17:34;;;;;;;3.83;1.70;;;11.70;95.40;;;;;;4984604;28;20038;-68
2023/10/26 12:20:00;;;;;;;3.65;1.88;;;11.60;95.50;;;;;;4984461;28;20085;-68
2023/10/26 12:22:26;;;;;;;3.75;1.65;;;11.50;95.50;;;;;;4984119;28;20386;-68
2023/10/26 12:24:51;;;;;;;3.97;1.85;;;11.60;96.10;;;;;;4983690;28;20056;-68
2023/10/26 12:27:18;;;;;;;3.10;1.45;;;11.50;95.90;;;;;;4982502;28;20351;-68
2023/10/26 12:29:43;;;;;;;3.95;1.95;;;11.50;96.00;;;;;;4983925;28;20513;-69
2023/10/26 12:32:10;;;;;;;4.15;1.77;;;11.50;95.90;;;;;;4985179;28;20065;-68
2023/10/26 12:34:35;;;;;;;3.40;1.85;;;11.40;96.20;;;;;;4984734;28;20382;-68
2023/10/26 12:37:01;;;;;;;3.65;1.92;;;11.50;96.10;;;;;;4984784;28;20031;-68
2023/10/26 12:39:26;;;;;;;4.22;1.42;;;11.50;96.30;;;;;;4984948;28;20031;-68
2023/10/26 12:41:52;;;;;;;3.20;1.60;;;11.50;96.10;;;;;;4983430;28;20089;-72
2023/10/26 12:44:20;;;;;;;3.95;1.77;;;11.50;96.10;;;;;;4983279;28;20545;-69
2023/10/26 12:46:46;;;;;;;2.83;1.50;;;11.50;96.20;;;;;;4985656;28;20031;-68
2023/10/26 12:49:11;;;;;;;3.95;1.85;;;11.50;96.20;;;;;;4985131;28;20531;-68
2023/10/26 12:51:37;;;;;;;3.47;1.75;;;11.50;95.30;;;;;;4989275;28;20509;-68